Time;durP1;ratioP1;P1;durP2;ratioP2;P2;SDS_P1;SDS_P2;PMS_P1;PMS_P2;Temp;Humidity;BMP_temperature;BMP_pressure;BME280_temperature;BME280_humidity;BME280_pressure;Samples;Min_cycle;Max_cycle;Signal;HPM_P1;HPM_P2
2022/12/15 00:39:40;;;;;;;2.13;1.70;;;;;;;;;;20897615;28;20229;-64
2022/12/15 01:20:44;;;;;;;1.97;1.77;;;;;;;;;;20881382;28;20209;-64
2022/12/15 01:30:46;;;;;;;5.07;2.50;;;;;;;;;;20877258;28;20287;-64
2022/12/15 01:41:01;;;;;;;2.77;2.03;;;-1.80;99.90;;;;;;20910410;28;20245;-64
2022/12/15 01:51:06;;;;;;;2.50;1.27;;;-1.80;99.90;;;;;;20973892;28;20317;-64
2022/12/15 02:01:08;;;;;;;1.17;1.07;;;;;;;;;;20947236;28;20205;-64
2022/12/15 02:11:11;;;;;;;1.53;1.40;;;;;;;;;;20973761;28;20237;-64
2022/12/15 02:21:12;;;;;;;2.50;1.77;;;;;;;;;;20949032;28;20282;-64
2022/12/15 02:41:44;;;;;;;1.60;1.50;;;;;;;;;;20957692;28;20274;-64
2022/12/15 02:51:51;;;;;;;2.03;1.90;;;;;;;;;;20927611;28;20225;-64
2022/12/15 03:01:59;;;;;;;1.27;1.17;;;;;;;;;;20886777;28;20358;-64
2022/12/15 03:12:01;;;;;;;1.30;1.20;;;;;;;;;;20886918;28;20221;-64
2022/12/15 03:22:03;;;;;;;2.37;1.83;;;;;;;;;;20853997;28;20565;-64
2022/12/15 03:32:05;;;;;;;2.20;1.43;;;-2.00;99.90;;;;;;20869775;28;20229;-64
2022/12/15 03:42:07;;;;;;;1.73;1.33;;;;;;;;;;20885023;28;20261;-64
2022/12/15 03:52:09;;;;;;;1.37;1.20;;;;;;;;;;20876634;28;20225;-64
2022/12/15 04:02:11;;;;;;;2.10;1.60;;;;;;;;;;20884767;28;20620;-64
2022/12/15 04:12:13;;;;;;;1.73;1.60;;;;;;;;;;20899032;28;20233;-64
2022/12/15 04:22:15;;;;;;;1.80;1.60;;;;;;;;;;20880255;28;20677;-64
2022/12/15 05:34:32;;;;;;;1.83;1.63;;;-2.00;99.90;;;;;;20992383;28;20597;-70
2022/12/15 05:44:35;;;;;;;1.20;1.10;;;;;;;;;;21030833;28;20236;-70
2022/12/15 05:54:37;;;;;;;1.37;1.27;;;;;;;;;;21073753;28;20282;-71
2022/12/15 06:04:39;;;;;;;1.30;1.20;;;;;;;;;;21073113;28;20302;-71
2022/12/15 06:14:41;;;;;;;1.57;1.47;;;;;;;;;;21073498;28;20242;-70
2022/12/15 06:24:42;;;;;;;0.97;0.97;;;;;;;;;;21021394;28;20209;-75
2022/12/15 06:34:44;;;;;;;1.87;1.53;;;;;;;;;;21039997;28;20580;-70
2022/12/15 06:44:46;;;;;;;2.00;1.73;;;;;;;;;;21066712;28;20297;-71
2022/12/15 06:54:48;;;;;;;1.20;1.10;;;;;;;;;;21067658;28;20297;-70
2022/12/15 07:04:50;;;;;;;1.73;1.50;;;;;;;;;;21051261;28;20220;-70
2022/12/15 07:14:51;;;;;;;2.10;1.90;;;;;;;;;;21022923;28;20205;-70
2022/12/15 07:24:53;;;;;;;1.67;1.57;;;;;;;;;;21043822;28;20224;-71
2022/12/15 07:34:55;;;;;;;1.30;1.20;;;;;;;;;;20991066;28;20657;-71
2022/12/15 07:44:56;;;;;;;1.17;1.00;;;;;;;;;;20990156;28;20217;-70
2022/12/15 07:54:58;;;;;;;2.20;1.43;;;;;;;;;;20960842;28;20575;-70
2022/12/15 08:05:00;;;;;;;0.90;0.80;;;;;;;;;;20942271;28;20234;-70
2022/12/15 08:15:02;;;;;;;1.53;1.43;;;;;;;;;;20978210;28;20260;-70
2022/12/15 08:25:04;;;;;;;1.37;1.27;;;;;;;;;;20978310;28;20577;-70
2022/12/15 08:35:06;;;;;;;1.50;1.40;;;;;;;;;;20978139;28;20742;-70
2022/12/15 08:45:09;;;;;;;2.97;1.43;;;-2.40;99.90;;;;;;21040737;28;20281;-70
2022/12/15 08:55:11;;;;;;;1.83;1.50;;;;;;;;;;21059624;28;20212;-70
2022/12/15 09:05:13;;;;;;;2.87;1.33;;;;;;;;;;21035864;28;20784;-71
2022/12/15 09:15:16;;;;;;;1.70;1.43;;;;;;;;;;21018452;28;20218;-70
2022/12/15 09:25:18;;;;;;;2.63;1.93;;;;;;;;;;21060884;28;20209;-70
2022/12/15 09:35:20;;;;;;;1.57;1.23;;;;;;;;;;21073552;28;20217;-69
2022/12/15 09:45:33;;;;;;;2.23;1.93;;;;;;;;;;21015849;28;20272;-70
2022/12/15 09:55:35;;;;;;;2.17;1.97;;;-1.60;99.90;;;;;;21012499;28;20255;-71
2022/12/15 10:05:51;;;;;;;1.80;1.23;;;-1.50;99.90;;;;;;20973565;28;20233;-70
2022/12/15 10:16:14;;;;;;;3.27;2.10;;;;;;;;;;20982414;28;20217;-71
2022/12/15 10:26:22;;;;;;;2.47;2.03;;;;;;;;;;20965858;28;20718;-71
2022/12/15 10:36:24;;;;;;;2.00;1.63;;;;;;;;;;20967159;28;20282;-71
2022/12/15 10:46:28;;;;;;;2.33;1.70;;;-1.30;99.90;;;;;;20986149;28;20809;-71
2022/12/15 10:56:32;;;;;;;3.00;2.03;;;-1.30;99.90;;;;;;20987951;28;20294;-71
2022/12/15 11:06:35;;;;;;;2.43;2.10;;;;;;;;;;20987536;28;20229;-71
2022/12/15 11:16:49;;;;;;;3.03;2.03;;;;;;;;;;21050743;28;20282;-71
2022/12/15 11:26:54;;;;;;;3.63;2.40;;;;;;;;;;21042935;22;20232;-64
2022/12/15 11:37:02;;;;;;;3.50;2.37;;;;;;;;;;20863849;28;20249;-64
2022/12/15 11:47:39;;;;;;;2.77;1.90;;;-2.10;99.90;;;;;;20857503;28;20264;-64
2022/12/15 11:57:41;;;;;;;0.47;0.47;;;;;;;;;;20857065;28;20218;-64
2022/12/15 12:07:56;;;;;;;2.57;2.27;;;;;;;;;;20866393;28;20271;-64
2022/12/15 12:18:03;;;;;;;4.97;2.33;;;;;;;;;;20891486;28;20225;-64
2022/12/15 12:28:16;;;;;;;2.03;1.83;;;;;;;;;;20887802;28;20221;-64
2022/12/15 12:38:22;;;;;;;5.60;1.67;;;;;;;;;;20963320;28;20231;-63
2022/12/15 12:48:36;;;;;;;2.93;2.07;;;;;;;;;;20963444;28;20212;-63
2022/12/15 12:58:44;;;;;;;2.87;2.50;;;-2.40;99.90;;;;;;20978622;28;20515;-64
2022/12/15 13:08:49;;;;;;;2.63;2.17;;;-2.40;99.90;;;;;;20961510;28;20745;-64
2022/12/15 13:19:03;;;;;;;2.33;1.77;;;;;;;;;;20960913;28;20262;-64
2022/12/15 13:29:08;;;;;;;2.70;1.90;;;;;;;;;;20958703;28;20220;-64
2022/12/15 13:39:13;;;;;;;2.83;2.20;;;;;;;;;;20934820;28;20669;-64
2022/12/15 13:49:24;;;;;;;1.83;1.50;;;;;;;;;;20797113;28;20284;-63
2022/12/15 13:59:39;;;;;;;1.47;1.37;;;-2.30;99.90;;;;;;20801589;28;20754;-63
2022/12/15 14:09:41;;;;;;;2.23;1.67;;;-2.40;99.90;;;;;;20886481;28;20225;-63
2022/12/15 14:19:47;;;;;;;1.43;1.33;;;;;;;;;;20938062;28;20267;-64
2022/12/15 14:29:50;;;;;;;1.80;1.20;;;;;;;;;;20937623;28;20230;-63
2022/12/15 14:39:52;;;;;;;2.30;2.13;;;-2.40;99.90;;;;;;20854856;28;20198;-63
2022/12/15 14:49:56;;;;;;;2.40;1.87;;;-2.30;99.90;;;;;;20853840;28;20283;-63
2022/12/15 14:59:59;;;;;;;1.80;1.60;;;;;;;;;;20868800;28;20264;-63
2022/12/15 15:10:02;;;;;;;1.37;1.27;;;;;;;;;;20904494;28;20290;-63
2022/12/15 15:20:07;;;;;;;1.53;1.17;;;;;;;;;;20913221;28;20700;-63
2022/12/15 15:30:14;;;;;;;0.97;0.90;;;;;;;;;;20911017;28;20220;-63
2022/12/15 15:40:16;;;;;;;2.07;1.83;;;;;;;;;;20940416;28;20209;-63
2022/12/15 15:50:24;;;;;;;0.77;0.63;;;;;;;;;;20940672;28;20221;-63
2022/12/15 16:00:26;;;;;;;1.63;1.53;;;;;;;;;;20844018;28;20492;-63
2022/12/15 16:10:29;;;;;;;2.13;1.57;;;;;;;;;;20894281;28;20230;-63
2022/12/15 16:20:32;;;;;;;2.07;1.57;;;;;;;;;;20866652;28;20279;-63
2022/12/15 16:30:35;;;;;;;1.60;1.50;;;;;;;;;;20930446;28;20717;-64
2022/12/15 16:40:37;;;;;;;2.27;1.93;;;-2.70;99.90;;;;;;20929335;28;20209;-63
2022/12/15 16:50:41;;;;;;;1.10;1.00;;;;;;;;;;20893587;28;20226;-64
2022/12/15 17:00:44;;;;;;;1.20;1.10;;;-3.20;99.90;;;;;;20911258;28;20202;-63
2022/12/15 17:10:46;;;;;;;1.07;0.93;;;;;;;;;;20821428;28;20283;-63
2022/12/15 17:20:48;;;;;;;3.80;2.20;;;;;;;;;;20797331;28;20221;-63
2022/12/15 17:30:50;;;;;;;1.17;1.07;;;;;;;;;;20776263;28;20285;-63
2022/12/15 17:40:53;;;;;;;2.47;1.57;;;;;;;;;;20896545;28;20243;-63
2022/12/15 17:50:55;;;;;;;0.70;0.63;;;;;;;;;;20809179;28;20218;-63
2022/12/15 18:00:57;;;;;;;1.93;1.50;;;;;;;;;;20797579;28;20210;-63
2022/12/15 18:11:00;;;;;;;2.27;1.97;;;;;;;;;;20803521;28;20226;-63
2022/12/15 18:21:07;;;;;;;1.67;1.13;;;;;;;;;;20789685;28;20574;-64
2022/12/15 18:31:16;;;;;;;1.50;1.23;;;;;;;;;;20822048;28;20781;-63
2022/12/15 18:41:19;;;;;;;1.77;1.47;;;;;;;;;;20877166;28;20710;-63
2022/12/15 18:51:22;;;;;;;1.60;1.07;;;;;;;;;;20898782;28;20651;-63
2022/12/15 19:01:24;;;;;;;2.20;1.47;;;;;;;;;;20822893;28;20213;-63
2022/12/15 19:11:29;;;;;;;1.23;1.13;;;;;;;;;;20905913;28;20270;-64
2022/12/15 19:31:44;;;;;;;1.70;1.10;;;-3.00;99.90;;;;;;20894136;28;20221;-63
2022/12/15 19:41:46;;;;;;;1.80;1.70;;;;;;;;;;20910401;28;20282;-63
2022/12/15 19:51:55;;;;;;;1.37;1.27;;;;;;;;;;20931954;28;20291;-63
2022/12/15 20:01:58;;;;;;;1.63;1.00;;;;;;;;;;20956666;28;20568;-63
2022/12/15 20:12:00;;;;;;;1.03;0.93;;;;;;;;;;20957530;28;20716;-63
2022/12/15 20:22:03;;;;;;;1.23;1.13;;;-2.80;99.90;;;;;;20921154;28;20218;-63
2022/12/15 20:32:12;;;;;;;1.33;1.23;;;;;;;;;;20879115;28;20279;-64
2022/12/15 20:42:16;;;;;;;1.23;1.00;;;-2.90;99.90;;;;;;20877456;28;20225;-63
2022/12/15 20:52:23;;;;;;;2.23;1.63;;;;;;;;;;20904164;28;20241;-63
2022/12/15 21:02:28;;;;;;;1.17;1.07;;;;;;;;;;20955860;28;20281;-64
2022/12/15 21:12:31;;;;;;;1.33;1.20;;;;;;;;;;20918241;28;20237;-64
2022/12/15 21:22:33;;;;;;;1.17;1.03;;;;;;;;;;20899967;28;20256;-64
2022/12/15 21:32:35;;;;;;;1.07;0.93;;;;;;;;;;20866710;28;20411;-63
2022/12/15 21:42:38;;;;;;;1.43;1.33;;;-2.90;99.90;;;;;;20954564;28;20239;-64
2022/12/15 21:52:40;;;;;;;0.57;0.57;;;;;;;;;;20972802;28;20221;-63
2022/12/15 22:02:41;;;;;;;1.20;1.10;;;;;;;;;;20955020;28;20952;-63
2022/12/15 22:12:48;;;;;;;1.00;0.90;;;-2.90;99.90;;;;;;20949263;28;20267;-63
2022/12/15 22:22:50;;;;;;;1.20;1.10;;;-1.10;99.90;;;;;;20865130;28;20234;-63
2022/12/15 22:32:53;;;;;;;1.20;1.10;;;;;;;;;;20872937;28;20295;-63
2022/12/15 22:42:56;;;;;;;4.33;1.50;;;;;;;;;;20856536;28;20264;-63
2022/12/15 22:52:59;;;;;;;1.67;1.43;;;;;;;;;;20888068;28;20230;-63
2022/12/15 23:03:01;;;;;;;0.67;0.60;;;;;;;;;;20887238;28;20225;-64
2022/12/15 23:13:03;;;;;;;1.30;1.07;;;;;;;;;;20870756;28;20244;-63
2022/12/15 23:23:06;;;;;;;0.67;0.50;;;-3.00;99.90;;;;;;20870232;28;20256;-63
2022/12/15 23:33:08;;;;;;;0.77;0.67;;;;;;;;;;20886483;28;20572;-63
2022/12/15 23:43:11;;;;;;;1.10;0.87;;;;;;;;;;20904521;28;20255;-64
2022/12/15 23:53:13;;;;;;;1.67;1.10;;;;;;;;;;20935398;28;20224;-64
